createdAt,value
2023-04-28T00:01:30.390Z,6.72
2023-04-28T00:03:58.764Z,6.68
2023-04-28T00:06:26.025Z,6.70
2023-04-28T00:08:52.881Z,6.80
2023-04-28T00:11:19.823Z,6.82
2023-04-28T00:13:46.558Z,7.70
2023-04-28T00:16:13.330Z,7.78
2023-04-28T00:18:40.201Z,7.50
2023-04-28T00:21:07.395Z,6.97
2023-04-28T00:23:34.206Z,7.80
2023-04-28T00:26:01.185Z,7.22
2023-04-28T00:28:34.228Z,6.72
2023-04-28T00:31:01.672Z,7.50
2023-04-28T00:33:28.460Z,7.90
2023-04-28T00:36:01.784Z,8.13
2023-04-28T00:38:28.882Z,6.78
2023-04-28T00:40:55.709Z,8.30
2023-04-28T00:43:22.529Z,7.32
2023-04-28T00:45:50.630Z,6.88
2023-04-28T00:48:17.835Z,6.45
2023-04-28T00:50:45.773Z,7.72
2023-04-28T00:53:13.391Z,7.90
2023-04-28T00:55:40.614Z,7.15
2023-04-28T00:58:08.476Z,7.70
2023-04-28T01:00:35.609Z,6.35
2023-04-28T01:03:02.669Z,7.63
2023-04-28T01:05:30.502Z,7.47
2023-04-28T01:07:57.291Z,6.82
2023-04-28T01:10:24.063Z,7.65
2023-04-28T01:12:50.940Z,8.65
2023-04-28T01:15:20.244Z,7.72
2023-04-28T01:17:47.826Z,7.90
2023-04-28T01:20:15.532Z,8.55
2023-04-28T01:22:42.458Z,7.53
2023-04-28T01:25:09.443Z,6.97
2023-04-28T01:27:36.216Z,8.18
2023-04-28T01:30:03.128Z,9.05
2023-04-28T01:32:29.915Z,6.93
2023-04-28T01:34:56.722Z,7.63
2023-04-28T01:37:23.987Z,6.97
2023-04-28T01:39:50.955Z,6.60
2023-04-28T01:42:17.686Z,7.10
2023-04-28T01:44:44.442Z,7.03
2023-04-28T01:47:11.267Z,6.53
2023-04-28T01:49:38.001Z,6.13
2023-04-28T01:52:04.936Z,7.18
2023-04-28T01:54:31.742Z,6.53
2023-04-28T01:56:58.474Z,7.25
2023-04-28T01:59:25.408Z,8.68
2023-04-28T02:01:52.281Z,6.97
2023-04-28T02:04:19.197Z,7.78
2023-04-28T02:06:46.334Z,6.63
2023-04-28T02:09:13.110Z,7.88
2023-04-28T02:11:40.133Z,5.97
2023-04-28T02:14:07.354Z,7.35
2023-04-28T02:16:34.306Z,6.68
2023-04-28T02:19:01.373Z,6.18
2023-04-28T02:21:28.162Z,6.00
2023-04-28T02:23:55.003Z,6.50
2023-04-28T02:26:21.791Z,6.65
2023-04-28T02:28:49.230Z,6.80
2023-04-28T02:31:16.402Z,7.00
2023-04-28T02:33:43.508Z,7.07
2023-04-28T02:36:11.122Z,6.55
2023-04-28T02:38:38.036Z,6.80
2023-04-28T02:41:07.507Z,6.55
2023-04-28T02:43:34.365Z,6.50
2023-04-28T02:46:02.609Z,7.32
2023-04-28T02:48:29.446Z,7.57
2023-04-28T02:50:56.255Z,6.55
2023-04-28T02:53:23.145Z,7.63
2023-04-28T02:55:50.340Z,7.20
2023-04-28T02:58:18.228Z,7.43
2023-04-28T03:00:45.507Z,6.40
2023-04-28T03:03:12.991Z,7.63
2023-04-28T03:05:40.075Z,6.57
2023-04-28T03:08:06.965Z,7.22
2023-04-28T03:10:33.745Z,8.05
2023-04-28T03:13:00.562Z,7.55
2023-04-28T03:15:27.706Z,7.07
2023-04-28T03:17:54.576Z,7.30
2023-04-28T03:20:21.560Z,6.40
2023-04-28T03:22:48.336Z,6.80
2023-04-28T03:25:15.706Z,7.22
2023-04-28T03:27:42.516Z,7.10
2023-04-28T03:30:10.484Z,7.68
2023-04-28T03:32:37.407Z,6.10
2023-04-28T03:35:04.695Z,6.50
2023-04-28T03:37:31.497Z,6.30
2023-04-28T03:39:58.243Z,7.15
2023-04-28T03:42:25.039Z,6.13
2023-04-28T03:44:51.844Z,6.57
2023-04-28T03:47:18.654Z,6.85
2023-04-28T03:49:45.621Z,6.68
2023-04-28T03:52:12.393Z,6.57
2023-04-28T03:54:39.208Z,6.45
2023-04-28T03:57:06.005Z,6.78
2023-04-28T03:59:33.156Z,6.80
2023-04-28T04:02:00.064Z,6.60
2023-04-28T04:04:27.322Z,7.38
2023-04-28T04:06:54.547Z,6.95
2023-04-28T04:09:21.396Z,7.07
2023-04-28T04:11:48.152Z,7.07
2023-04-28T04:14:15.173Z,6.25
2023-04-28T04:16:42.454Z,6.15
2023-04-28T04:19:09.275Z,6.55
2023-04-28T04:21:36.272Z,7.00
2023-04-28T04:24:03.065Z,7.50
2023-04-28T04:26:29.823Z,7.68
2023-04-28T04:28:56.719Z,7.15
2023-04-28T04:31:23.638Z,7.00
2023-04-28T04:33:50.469Z,7.40
2023-04-28T04:36:17.372Z,7.40
2023-04-28T04:38:44.171Z,7.50
2023-04-28T04:41:10.920Z,7.45
2023-04-28T04:43:37.638Z,7.13
2023-04-28T04:46:04.842Z,7.50
2023-04-28T04:48:31.717Z,6.70
2023-04-28T04:50:58.591Z,6.72
2023-04-28T04:53:25.490Z,7.28
2023-04-28T04:55:52.292Z,8.55
2023-04-28T04:58:19.153Z,8.93
2023-04-28T05:00:46.065Z,7.43
2023-04-28T05:03:13.083Z,7.05
2023-04-28T05:05:40.540Z,7.88
2023-04-28T05:08:07.330Z,8.10
2023-04-28T05:10:34.187Z,8.73
2023-04-28T05:13:01.027Z,9.02
2023-04-28T05:15:28.238Z,7.10
2023-04-28T05:17:55.119Z,7.20
2023-04-28T05:20:21.985Z,8.07
2023-04-28T05:22:48.741Z,7.15
2023-04-28T05:25:15.960Z,8.68
2023-04-28T05:27:42.841Z,8.70
2023-04-28T05:30:10.843Z,8.02
2023-04-28T05:32:41.456Z,7.90
2023-04-28T05:35:08.694Z,7.78
2023-04-28T05:37:35.781Z,7.93
2023-04-28T05:40:02.523Z,8.35
2023-04-28T05:42:29.296Z,9.32
2023-04-28T05:44:56.102Z,9.35
2023-04-28T05:47:22.923Z,7.35
2023-04-28T05:49:49.717Z,8.00
2023-04-28T05:52:16.499Z,8.02
2023-04-28T05:54:43.328Z,9.02
2023-04-28T05:57:10.117Z,8.43
2023-04-28T05:59:36.882Z,9.23
2023-04-28T06:02:03.724Z,8.30
2023-04-28T06:04:30.803Z,7.70
2023-04-28T06:06:58.008Z,8.10
2023-04-28T06:09:25.045Z,7.95
2023-04-28T06:11:51.791Z,8.15
2023-04-28T06:14:18.685Z,8.45
2023-04-28T06:16:45.841Z,7.40
2023-04-28T06:19:18.817Z,8.00
2023-04-28T06:21:46.484Z,7.97
2023-04-28T06:24:13.299Z,6.63
2023-04-28T06:26:40.311Z,8.05
2023-04-28T06:29:07.116Z,6.65
2023-04-28T06:31:33.908Z,7.10
2023-04-28T06:34:00.680Z,7.65
2023-04-28T06:36:28.244Z,7.03
2023-04-28T06:38:55.807Z,6.30
2023-04-28T06:41:22.739Z,6.20
2023-04-28T06:43:50.974Z,6.53
2023-04-28T06:46:17.854Z,6.85
2023-04-28T06:48:44.665Z,5.90
2023-04-28T06:51:11.430Z,6.35
2023-04-28T06:53:38.409Z,5.78
2023-04-28T06:56:05.725Z,5.43
2023-04-28T06:58:32.823Z,5.70
2023-04-28T07:00:59.634Z,5.60
2023-04-28T07:03:27.887Z,5.60
2023-04-28T07:05:54.961Z,4.33
2023-04-28T07:08:21.891Z,4.28
2023-04-28T07:10:48.717Z,4.03
2023-04-28T07:13:15.626Z,5.28
2023-04-28T07:15:42.441Z,4.90
2023-04-28T07:18:10.450Z,4.60
2023-04-28T07:20:37.221Z,4.60
2023-04-28T07:23:03.967Z,3.85
2023-04-28T07:25:31.669Z,4.70
2023-04-28T07:27:58.561Z,3.40
2023-04-28T07:30:27.871Z,3.22
2023-04-28T07:32:55.556Z,3.03
2023-04-28T07:35:22.775Z,3.40
2023-04-28T07:37:49.835Z,2.20
2023-04-28T07:40:16.967Z,2.35
2023-04-28T07:42:43.714Z,2.45
2023-04-28T07:45:11.437Z,2.10
2023-04-28T07:47:39.373Z,2.20
2023-04-28T07:50:07.081Z,1.55
2023-04-28T07:52:34.886Z,1.90
2023-04-28T07:55:03.415Z,1.40
2023-04-28T07:57:30.772Z,1.42
2023-04-28T07:59:57.613Z,1.90
2023-04-28T08:02:24.469Z,1.00
2023-04-28T08:04:51.513Z,1.33
2023-04-28T08:07:18.459Z,1.15
2023-04-28T08:09:47.690Z,1.25
2023-04-28T08:12:15.085Z,2.05
2023-04-28T08:14:41.929Z,2.15
2023-04-28T08:17:09.428Z,1.80
2023-04-28T08:19:36.302Z,1.80
2023-04-28T08:22:06.157Z,1.70
2023-04-28T08:24:36.827Z,2.03
2023-04-28T08:27:04.115Z,1.98
2023-04-28T08:29:32.132Z,2.10
2023-04-28T08:31:59.674Z,2.53
2023-04-28T08:34:26.469Z,2.10
2023-04-28T08:36:53.572Z,2.20
2023-04-28T08:39:23.862Z,2.03
2023-04-28T08:41:50.868Z,2.10
2023-04-28T08:44:18.481Z,1.80
2023-04-28T08:46:47.348Z,1.70
2023-04-28T08:49:19.059Z,2.33
2023-04-28T08:51:50.546Z,2.23
2023-04-28T08:54:26.241Z,2.30
2023-04-28T08:56:55.589Z,2.13
2023-04-28T08:59:22.656Z,2.57
2023-04-28T09:01:50.660Z,2.33
2023-04-28T09:04:19.325Z,2.30
2023-04-28T09:06:46.824Z,2.38
2023-04-28T09:09:21.892Z,2.43
2023-04-28T09:11:59.641Z,1.73
2023-04-28T09:14:28.383Z,1.83
2023-04-28T09:16:56.105Z,2.17
2023-04-28T09:19:23.260Z,2.10
2023-04-28T09:21:53.821Z,2.87
2023-04-28T09:24:39.872Z,2.50
2023-04-28T09:27:10.792Z,1.45
2023-04-28T09:29:39.129Z,2.50
2023-04-28T09:32:20.272Z,1.80
2023-04-28T09:34:52.025Z,2.30
2023-04-28T09:37:27.172Z,1.90
2023-04-28T09:39:55.306Z,2.30
2023-04-28T09:42:35.302Z,1.83
2023-04-28T09:45:04.587Z,2.00
2023-04-28T09:47:33.720Z,1.90
2023-04-28T09:50:02.478Z,1.87
2023-04-28T09:52:29.310Z,2.40
2023-04-28T09:54:57.023Z,2.63
2023-04-28T09:57:24.556Z,1.80
2023-04-28T09:59:52.602Z,2.40
2023-04-28T10:02:42.892Z,2.07
2023-04-28T10:05:11.349Z,2.00
2023-04-28T10:07:39.386Z,1.90
2023-04-28T10:10:08.187Z,1.93
2023-04-28T10:12:38.141Z,2.10
2023-04-28T10:15:06.412Z,1.33
2023-04-28T10:17:34.013Z,1.73
2023-04-28T10:20:00.831Z,1.33
2023-04-28T10:22:58.484Z,1.73
2023-04-28T10:25:32.142Z,1.50
2023-04-28T10:28:00.366Z,1.50
2023-04-28T10:30:30.125Z,1.27
2023-04-28T10:33:06.936Z,1.90
2023-04-28T10:35:36.397Z,1.63
2023-04-28T10:38:09.204Z,1.80
2023-04-28T10:40:39.648Z,1.73
2023-04-28T10:43:08.861Z,2.23
2023-04-28T10:45:58.062Z,1.77
2023-04-28T10:48:34.437Z,2.40
2023-04-28T10:51:04.682Z,1.87
2023-04-28T10:53:47.444Z,1.90
2023-04-28T10:56:19.821Z,1.93
2023-04-28T10:58:49.338Z,1.93
2023-04-28T11:01:22.222Z,1.57
2023-04-28T11:04:00.215Z,1.87
2023-04-28T11:06:33.122Z,1.87
2023-04-28T11:09:19.543Z,1.83
2023-04-28T11:11:58.472Z,1.67
2023-04-28T11:14:25.187Z,1.87
2023-04-28T11:16:59.904Z,2.00
2023-04-28T11:19:30.713Z,1.80
2023-04-28T11:21:59.635Z,2.30
2023-04-28T11:24:28.983Z,2.10
2023-04-28T11:26:56.666Z,1.40
2023-04-28T11:29:41.029Z,1.53
2023-04-28T11:32:09.978Z,1.63
2023-04-28T11:34:37.869Z,1.30
2023-04-28T11:37:07.126Z,1.33
2023-04-28T11:39:34.846Z,1.73
2023-04-28T11:42:11.574Z,2.13
2023-04-28T11:44:38.478Z,2.00
2023-04-28T11:47:06.631Z,2.10
2023-04-28T11:49:44.426Z,1.70
2023-04-28T11:52:11.713Z,1.70
2023-04-28T11:54:38.909Z,1.60
2023-04-28T11:57:06.689Z,2.00
2023-04-28T11:59:35.755Z,2.20
2023-04-28T12:02:03.836Z,1.70
2023-04-28T12:04:38.321Z,2.07
2023-04-28T12:07:05.302Z,2.60
2023-04-28T12:09:35.665Z,2.10
2023-04-28T12:12:11.937Z,1.97
2023-04-28T12:14:58.220Z,2.77
2023-04-28T12:17:34.026Z,2.00
2023-04-28T12:20:07.941Z,1.87
2023-04-28T12:22:48.661Z,2.40
2023-04-28T12:25:17.973Z,2.27
2023-04-28T12:28:03.688Z,2.60
2023-04-28T12:30:35.287Z,2.43
2023-04-28T12:33:02.428Z,2.20
2023-04-28T12:35:29.959Z,3.10
2023-04-28T12:37:58.885Z,1.93
2023-04-28T12:40:26.324Z,2.00
2023-04-28T12:42:53.686Z,2.50
2023-04-28T12:45:20.502Z,2.53
2023-04-28T12:47:48.156Z,2.30
2023-04-28T12:50:15.121Z,3.30
2023-04-28T12:52:41.956Z,2.40
2023-04-28T12:55:09.304Z,2.83
2023-04-28T12:57:39.091Z,2.90
2023-04-28T13:00:07.687Z,3.07
2023-04-28T13:02:34.951Z,3.70
2023-04-28T13:05:02.165Z,3.43
2023-04-28T13:07:30.308Z,3.17
2023-04-28T13:09:57.366Z,2.70
2023-04-28T13:12:24.327Z,2.83
2023-04-28T13:14:51.271Z,4.00
2023-04-28T13:17:18.135Z,3.20
2023-04-28T13:19:45.274Z,2.60
2023-04-28T13:22:12.435Z,2.90
2023-04-28T13:24:39.432Z,2.63
2023-04-28T13:27:09.775Z,3.60
2023-04-28T13:29:37.417Z,3.20
2023-04-28T13:32:05.764Z,3.43
2023-04-28T13:34:33.255Z,3.30
2023-04-28T13:37:00.056Z,3.13
2023-04-28T13:39:26.822Z,2.97
2023-04-28T13:41:53.714Z,3.17
2023-04-28T13:44:21.184Z,3.73
2023-04-28T13:46:48.271Z,3.20
2023-04-28T13:49:15.178Z,3.70
2023-04-28T13:51:41.941Z,2.50
2023-04-28T13:54:10.563Z,3.60
2023-04-28T13:56:37.766Z,2.83
2023-04-28T13:59:04.802Z,3.10
2023-04-28T14:01:31.615Z,3.47
2023-04-28T14:03:58.910Z,3.23
2023-04-28T14:06:27.448Z,3.03
2023-04-28T14:08:54.312Z,2.90
2023-04-28T14:11:21.127Z,3.37
2023-04-28T14:13:47.882Z,3.10
2023-04-28T14:16:14.866Z,3.73
2023-04-28T14:18:41.727Z,2.97
2023-04-28T14:21:09.078Z,3.50
2023-04-28T14:23:35.865Z,3.60
2023-04-28T14:26:02.822Z,3.43
2023-04-28T14:28:29.747Z,2.80
2023-04-28T14:30:56.879Z,3.57
2023-04-28T14:33:24.335Z,3.40
2023-04-28T14:35:51.201Z,3.63
2023-04-28T14:38:18.120Z,3.50
2023-04-28T14:40:44.905Z,2.80
2023-04-28T14:43:11.695Z,2.83
2023-04-28T14:45:38.556Z,3.90
2023-04-28T14:48:07.179Z,3.63
2023-04-28T14:50:34.460Z,3.27
2023-04-28T14:53:05.675Z,3.40
2023-04-28T14:55:33.468Z,3.23
2023-04-28T14:58:00.432Z,3.37
2023-04-28T15:00:27.196Z,2.73
2023-04-28T15:02:54.308Z,2.90
2023-04-28T15:05:21.579Z,3.10
2023-04-28T15:07:48.403Z,3.73
2023-04-28T15:10:15.426Z,3.33
2023-04-28T15:12:42.958Z,3.47
2023-04-28T15:15:10.257Z,2.83
2023-04-28T15:17:37.185Z,2.70
2023-04-28T15:20:05.297Z,2.87
2023-04-28T15:22:32.152Z,3.23
2023-04-28T15:24:58.950Z,3.30
2023-04-28T15:27:25.874Z,3.47
2023-04-28T15:29:52.698Z,3.30
2023-04-28T15:32:19.501Z,3.33
2023-04-28T15:34:46.313Z,3.20
2023-04-28T15:37:38.513Z,3.43
2023-04-28T15:40:08.461Z,2.70
2023-04-28T15:42:35.256Z,3.30
2023-04-28T15:45:03.121Z,3.43
2023-04-28T15:47:31.112Z,4.00
2023-04-28T15:49:59.870Z,2.87
2023-04-28T15:52:27.237Z,2.93
2023-04-28T15:54:55.908Z,3.47
2023-04-28T15:57:22.967Z,3.40
2023-04-28T15:59:51.697Z,2.60
2023-04-28T16:02:18.878Z,3.00
2023-04-28T16:04:47.047Z,2.93
2023-04-28T16:07:14.212Z,3.10
2023-04-28T16:09:41.141Z,2.67
2023-04-28T16:12:08.516Z,2.83
2023-04-28T16:14:36.488Z,3.57
2023-04-28T16:17:03.577Z,3.10
2023-04-28T16:19:30.493Z,3.47
2023-04-28T16:21:57.448Z,3.10
2023-04-28T16:24:24.796Z,2.80
2023-04-28T16:26:52.262Z,3.00
2023-04-28T16:29:19.028Z,2.90
2023-04-28T16:31:46.112Z,3.60
2023-04-28T16:34:13.012Z,3.03
2023-04-28T16:36:40.280Z,3.10
2023-04-28T16:39:07.193Z,3.07
2023-04-28T16:41:34.194Z,2.87
2023-04-28T16:44:00.938Z,2.60
2023-04-28T16:46:27.789Z,2.60
2023-04-28T16:48:54.633Z,3.20
2023-04-28T16:51:22.171Z,2.73
2023-04-28T16:53:49.057Z,2.60
2023-04-28T16:56:15.980Z,2.50
2023-04-28T16:58:42.933Z,3.23
2023-04-28T17:01:09.798Z,2.70
2023-04-28T17:03:41.617Z,2.70
2023-04-28T17:06:09.075Z,2.80
2023-04-28T17:08:36.022Z,2.63
2023-04-28T17:11:04.751Z,2.60
2023-04-28T17:13:32.998Z,2.80
2023-04-28T17:16:00.359Z,3.90
2023-04-28T17:18:27.972Z,2.70
2023-04-28T17:20:55.170Z,3.17
2023-04-28T17:23:22.018Z,2.80
2023-04-28T17:25:48.891Z,3.40
2023-04-28T17:28:15.699Z,2.53
2023-04-28T17:30:46.905Z,3.30
2023-04-28T17:33:14.322Z,3.43
2023-04-28T17:35:41.044Z,3.57
2023-04-28T17:38:07.782Z,4.40
2023-04-28T17:40:34.532Z,4.10
2023-04-28T17:43:02.184Z,4.50
2023-04-28T17:45:29.093Z,3.70
2023-04-28T17:48:00.710Z,3.80
2023-04-28T17:50:28.409Z,4.40
2023-04-28T17:52:55.311Z,3.87
2023-04-28T17:55:23.456Z,3.37
2023-04-28T17:57:51.995Z,4.30
2023-04-28T18:00:18.865Z,4.40
2023-04-28T18:02:46.142Z,3.47
2023-04-28T18:05:13.226Z,3.90
2023-04-28T18:07:40.041Z,3.63
2023-04-28T18:10:07.331Z,3.50
2023-04-28T18:12:34.180Z,3.70
2023-04-28T18:15:01.413Z,3.17
2023-04-28T18:17:28.367Z,4.90
2023-04-28T18:19:57.089Z,3.70
2023-04-28T18:22:24.082Z,3.73
2023-04-28T18:24:51.236Z,3.87
2023-04-28T18:27:18.563Z,3.67
2023-04-28T18:29:45.702Z,3.93
2023-04-28T18:32:14.547Z,4.10
2023-04-28T18:34:41.640Z,5.50
2023-04-28T18:37:09.440Z,5.50
2023-04-28T18:39:37.041Z,5.73
2023-04-28T18:42:04.430Z,5.40
2023-04-28T18:44:31.321Z,5.47
2023-04-28T18:46:58.599Z,5.70
2023-04-28T18:49:25.809Z,4.77
2023-04-28T18:51:52.629Z,5.57
2023-04-28T18:54:19.868Z,6.00
2023-04-28T18:56:48.047Z,5.37
2023-04-28T18:59:14.876Z,6.00
2023-04-28T19:01:42.385Z,4.90
2023-04-28T19:04:09.519Z,5.57
2023-04-28T19:06:36.475Z,5.50
2023-04-28T19:09:03.526Z,6.23
2023-04-28T19:11:30.588Z,6.60
2023-04-28T19:13:58.094Z,6.30
2023-04-28T19:16:25.029Z,5.97
2023-04-28T19:18:52.140Z,6.47
2023-04-28T19:21:18.992Z,6.70
2023-04-28T19:23:46.218Z,7.17
2023-04-28T19:26:13.504Z,6.87
2023-04-28T19:28:40.391Z,6.60
2023-04-28T19:31:08.796Z,6.67
2023-04-28T19:33:35.760Z,6.93
2023-04-28T19:36:03.322Z,5.83
2023-04-28T19:38:30.185Z,6.90
2023-04-28T19:41:03.433Z,6.40
2023-04-28T19:43:30.769Z,7.03
2023-04-28T19:45:58.029Z,6.53
2023-04-28T19:48:26.199Z,6.13
2023-04-28T19:50:53.008Z,7.60
2023-04-28T19:53:19.832Z,6.40
2023-04-28T19:55:46.638Z,5.90
2023-04-28T19:58:14.933Z,7.00
2023-04-28T20:00:41.869Z,6.67
2023-04-28T20:03:09.239Z,6.03
2023-04-28T20:05:39.142Z,5.70
2023-04-28T20:08:06.046Z,7.00
2023-04-28T20:10:33.059Z,6.87
2023-04-28T20:12:59.952Z,6.63
2023-04-28T20:15:26.859Z,7.93
2023-04-28T20:17:53.797Z,7.03
2023-04-28T20:20:20.820Z,7.97
2023-04-28T20:22:50.609Z,7.60
2023-04-28T20:25:17.648Z,7.13
2023-04-28T20:27:46.914Z,7.20
2023-04-28T20:30:14.201Z,7.10
2023-04-28T20:32:41.144Z,8.77
2023-04-28T20:35:08.353Z,7.97
2023-04-28T20:37:35.118Z,9.03
2023-04-28T20:40:01.889Z,8.20
2023-04-28T20:42:29.353Z,8.60
2023-04-28T20:44:56.116Z,9.53
2023-04-28T20:47:22.943Z,9.40
2023-04-28T20:49:50.099Z,9.30
2023-04-28T20:52:18.438Z,9.10
2023-04-28T20:54:45.795Z,8.93
2023-04-28T20:57:12.631Z,11.90
2023-04-28T20:59:39.494Z,8.20
2023-04-28T21:02:06.703Z,8.03
2023-04-28T21:04:33.546Z,8.90
2023-04-28T21:07:00.303Z,8.30
2023-04-28T21:09:27.171Z,8.70
2023-04-28T21:11:54.973Z,8.63
2023-04-28T21:14:22.213Z,9.10
2023-04-28T21:16:49.672Z,9.20
2023-04-28T21:19:17.473Z,8.93
2023-04-28T21:21:44.306Z,8.57
2023-04-28T21:24:11.075Z,9.27
2023-04-28T21:26:37.854Z,9.70
2023-04-28T21:29:05.064Z,10.90
2023-04-28T21:31:31.920Z,10.00
2023-04-28T21:33:58.826Z,9.33
2023-04-28T21:36:25.673Z,9.60
2023-04-28T21:38:52.451Z,8.23
2023-04-28T21:41:20.481Z,9.05
2023-04-28T21:43:47.357Z,9.10
2023-04-28T21:46:14.284Z,9.53
2023-04-28T21:48:41.173Z,8.27
2023-04-28T21:51:07.950Z,8.85
2023-04-28T21:53:37.987Z,9.10
2023-04-28T21:56:05.690Z,9.13
2023-04-28T21:58:33.186Z,9.40
2023-04-28T22:01:01.401Z,10.17
2023-04-28T22:03:28.909Z,8.90
2023-04-28T22:05:56.536Z,9.47
2023-04-28T22:08:23.376Z,10.87
2023-04-28T22:10:50.207Z,8.98
2023-04-28T22:13:17.026Z,9.10
2023-04-28T22:15:43.857Z,9.47
2023-04-28T22:18:10.684Z,9.88
2023-04-28T22:20:37.680Z,10.43
2023-04-28T22:23:04.668Z,9.97
2023-04-28T22:25:31.868Z,9.40
2023-04-28T22:27:58.706Z,9.83
2023-04-28T22:30:26.314Z,8.90
2023-04-28T22:32:53.600Z,9.00
2023-04-28T22:35:22.161Z,9.67
2023-04-28T22:49:17.842Z,9.40
2023-04-28T22:51:44.622Z,8.45
2023-04-28T22:54:11.487Z,8.82
2023-04-28T22:56:38.270Z,9.50
2023-04-28T22:59:05.699Z,8.95
2023-04-28T23:01:32.475Z,10.05
2023-04-28T23:03:59.469Z,8.93
2023-04-28T23:06:28.580Z,9.82
2023-04-28T23:08:56.002Z,9.13
2023-04-28T23:11:24.297Z,9.30
2023-04-28T23:13:51.785Z,9.85
2023-04-28T23:16:18.692Z,8.85
2023-04-28T23:18:45.662Z,9.45
2023-04-28T23:21:12.559Z,10.02
2023-04-28T23:23:39.332Z,8.98
2023-04-28T23:26:06.163Z,8.80
2023-04-28T23:28:32.959Z,8.73
2023-04-28T23:30:59.694Z,9.45
2023-04-28T23:33:26.465Z,9.82
2023-04-28T23:35:53.750Z,9.35
2023-04-28T23:38:21.059Z,9.52
2023-04-28T23:40:47.957Z,9.98
2023-04-28T23:43:15.121Z,8.75
2023-04-28T23:45:42.668Z,9.70
2023-04-28T23:48:09.494Z,9.13
2023-04-28T23:50:36.274Z,9.75
2023-04-28T23:53:03.020Z,9.02
2023-04-28T23:55:29.953Z,8.52
2023-04-28T23:57:56.758Z,9.57
